sensor_id;sensor_type;location;lat;lon;timestamp;temperature;humidity
69747;DHT22;57018;50.278;19.134;2022-07-25T00:00:38;16.90;77.00
69747;DHT22;57018;50.278;19.134;2022-07-25T00:03:04;16.80;77.30
69747;DHT22;57018;50.278;19.134;2022-07-25T00:05:31;16.70;77.20
69747;DHT22;57018;50.278;19.134;2022-07-25T00:07:57;16.70;77.40
69747;DHT22;57018;50.278;19.134;2022-07-25T00:10:23;16.60;78.00
69747;DHT22;57018;50.278;19.134;2022-07-25T00:12:49;16.50;78.80
69747;DHT22;57018;50.278;19.134;2022-07-25T00:15:15;16.50;78.90
69747;DHT22;57018;50.278;19.134;2022-07-25T00:17:42;16.40;78.90
69747;DHT22;57018;50.278;19.134;2022-07-25T00:20:08;16.50;79.20
69747;DHT22;57018;50.278;19.134;2022-07-25T00:22:34;16.50;79.00
69747;DHT22;57018;50.278;19.134;2022-07-25T00:25:00;16.50;79.20
69747;DHT22;57018;50.278;19.134;2022-07-25T00:27:26;16.60;79.30
69747;DHT22;57018;50.278;19.134;2022-07-25T00:29:52;16.50;78.90
69747;DHT22;57018;50.278;19.134;2022-07-25T00:32:18;16.50;79.20
69747;DHT22;57018;50.278;19.134;2022-07-25T00:34:45;16.50;79.10
69747;DHT22;57018;50.278;19.134;2022-07-25T00:37:11;16.50;78.90
69747;DHT22;57018;50.278;19.134;2022-07-25T00:39:37;16.40;79.00
69747;DHT22;57018;50.278;19.134;2022-07-25T00:42:03;16.40;78.90
69747;DHT22;57018;50.278;19.134;2022-07-25T00:44:31;16.40;79.50
69747;DHT22;57018;50.278;19.134;2022-07-25T00:46:58;16.30;79.50
69747;DHT22;57018;50.278;19.134;2022-07-25T00:49:25;16.20;79.20
69747;DHT22;57018;50.278;19.134;2022-07-25T00:51:52;16.30;79.40
69747;DHT22;57018;50.278;19.134;2022-07-25T00:54:19;16.20;79.30
69747;DHT22;57018;50.278;19.134;2022-07-25T00:56:47;16.20;79.30
69747;DHT22;57018;50.278;19.134;2022-07-25T00:59:14;16.20;79.10
69747;DHT22;57018;50.278;19.134;2022-07-25T01:01:41;16.10;79.30
69747;DHT22;57018;50.278;19.134;2022-07-25T01:04:09;16.10;80.00
69747;DHT22;57018;50.278;19.134;2022-07-25T01:06:36;16.10;79.80
69747;DHT22;57018;50.278;19.134;2022-07-25T01:09:03;16.00;80.30
69747;DHT22;57018;50.278;19.134;2022-07-25T01:11:29;16.10;80.20
69747;DHT22;57018;50.278;19.134;2022-07-25T01:13:55;16.00;79.80
69747;DHT22;57018;50.278;19.134;2022-07-25T01:16:21;15.90;79.60
69747;DHT22;57018;50.278;19.134;2022-07-25T01:18:47;15.80;79.80
69747;DHT22;57018;50.278;19.134;2022-07-25T01:21:13;15.90;79.50
69747;DHT22;57018;50.278;19.134;2022-07-25T01:23:40;15.90;79.90
69747;DHT22;57018;50.278;19.134;2022-07-25T01:26:06;15.80;80.10
69747;DHT22;57018;50.278;19.134;2022-07-25T01:28:32;15.70;80.20
69747;DHT22;57018;50.278;19.134;2022-07-25T01:30:58;15.80;79.90
69747;DHT22;57018;50.278;19.134;2022-07-25T01:33:24;15.80;79.70
69747;DHT22;57018;50.278;19.134;2022-07-25T01:35:51;15.80;79.30
69747;DHT22;57018;50.278;19.134;2022-07-25T01:38:17;15.90;78.90
69747;DHT22;57018;50.278;19.134;2022-07-25T01:40:43;15.80;79.40
69747;DHT22;57018;50.278;19.134;2022-07-25T01:43:10;15.90;79.10
69747;DHT22;57018;50.278;19.134;2022-07-25T01:45:37;15.90;79.40
69747;DHT22;57018;50.278;19.134;2022-07-25T01:48:03;15.80;79.00
69747;DHT22;57018;50.278;19.134;2022-07-25T01:50:29;15.80;78.90
69747;DHT22;57018;50.278;19.134;2022-07-25T01:52:56;15.80;79.10
69747;DHT22;57018;50.278;19.134;2022-07-25T01:55:22;15.80;79.40
69747;DHT22;57018;50.278;19.134;2022-07-25T01:57:48;15.80;79.60
69747;DHT22;57018;50.278;19.134;2022-07-25T02:00:14;15.70;80.30
69747;DHT22;57018;50.278;19.134;2022-07-25T02:02:42;15.70;80.20
69747;DHT22;57018;50.278;19.134;2022-07-25T02:05:10;15.70;80.30
69747;DHT22;57018;50.278;19.134;2022-07-25T02:07:37;15.70;80.40
69747;DHT22;57018;50.278;19.134;2022-07-25T02:10:05;15.70;80.90
69747;DHT22;57018;50.278;19.134;2022-07-25T02:12:32;15.60;80.90
69747;DHT22;57018;50.278;19.134;2022-07-25T02:14:58;15.70;81.20
69747;DHT22;57018;50.278;19.134;2022-07-25T02:17:24;15.60;81.10
69747;DHT22;57018;50.278;19.134;2022-07-25T02:19:50;15.60;81.00
69747;DHT22;57018;50.278;19.134;2022-07-25T02:22:16;15.60;80.70
69747;DHT22;57018;50.278;19.134;2022-07-25T02:24:42;15.60;80.00
69747;DHT22;57018;50.278;19.134;2022-07-25T02:27:09;15.60;80.60
69747;DHT22;57018;50.278;19.134;2022-07-25T02:29:35;15.70;81.10
69747;DHT22;57018;50.278;19.134;2022-07-25T02:32:02;15.60;80.80
69747;DHT22;57018;50.278;19.134;2022-07-25T02:34:28;15.70;81.00
69747;DHT22;57018;50.278;19.134;2022-07-25T02:36:54;15.60;81.00
69747;DHT22;57018;50.278;19.134;2022-07-25T02:39:20;15.60;80.80
69747;DHT22;57018;50.278;19.134;2022-07-25T02:41:46;15.60;81.50
69747;DHT22;57018;50.278;19.134;2022-07-25T02:44:12;15.70;81.30
69747;DHT22;57018;50.278;19.134;2022-07-25T02:46:38;15.60;81.30
69747;DHT22;57018;50.278;19.134;2022-07-25T02:49:04;15.70;81.10
69747;DHT22;57018;50.278;19.134;2022-07-25T02:51:30;15.70;81.00
69747;DHT22;57018;50.278;19.134;2022-07-25T02:53:56;15.70;80.60
69747;DHT22;57018;50.278;19.134;2022-07-25T02:56:23;15.70;80.90
69747;DHT22;57018;50.278;19.134;2022-07-25T02:58:49;15.70;80.60
69747;DHT22;57018;50.278;19.134;2022-07-25T03:01:15;15.70;80.30
69747;DHT22;57018;50.278;19.134;2022-07-25T03:03:41;15.80;80.60
69747;DHT22;57018;50.278;19.134;2022-07-25T03:06:07;15.70;80.20
69747;DHT22;57018;50.278;19.134;2022-07-25T03:08:33;15.80;80.20
69747;DHT22;57018;50.278;19.134;2022-07-25T03:10:59;15.90;80.30
69747;DHT22;57018;50.278;19.134;2022-07-25T03:13:25;15.80;80.00
69747;DHT22;57018;50.278;19.134;2022-07-25T03:15:51;15.90;80.00
69747;DHT22;57018;50.278;19.134;2022-07-25T03:18:18;15.90;80.00
69747;DHT22;57018;50.278;19.134;2022-07-25T03:20:44;16.00;79.80
69747;DHT22;57018;50.278;19.134;2022-07-25T03:23:10;16.00;79.70
69747;DHT22;57018;50.278;19.134;2022-07-25T03:25:36;16.10;79.40
69747;DHT22;57018;50.278;19.134;2022-07-25T03:28:02;16.20;79.50
69747;DHT22;57018;50.278;19.134;2022-07-25T03:30:28;16.20;79.40
69747;DHT22;57018;50.278;19.134;2022-07-25T03:32:55;16.20;79.50
69747;DHT22;57018;50.278;19.134;2022-07-25T03:35:21;16.30;79.40
69747;DHT22;57018;50.278;19.134;2022-07-25T03:37:47;16.50;79.30
69747;DHT22;57018;50.278;19.134;2022-07-25T03:40:13;16.70;79.00
69747;DHT22;57018;50.278;19.134;2022-07-25T03:42:40;16.90;78.60
69747;DHT22;57018;50.278;19.134;2022-07-25T03:45:07;17.20;77.80
69747;DHT22;57018;50.278;19.134;2022-07-25T03:47:34;17.40;77.30
69747;DHT22;57018;50.278;19.134;2022-07-25T03:50:00;17.70;76.30
69747;DHT22;57018;50.278;19.134;2022-07-25T03:52:27;18.20;74.40
69747;DHT22;57018;50.278;19.134;2022-07-25T03:54:53;18.60;73.30
69747;DHT22;57018;50.278;19.134;2022-07-25T03:57:19;19.00;71.80
69747;DHT22;57018;50.278;19.134;2022-07-25T03:59:45;19.10;70.40
69747;DHT22;57018;50.278;19.134;2022-07-25T04:02:11;19.50;69.50
69747;DHT22;57018;50.278;19.134;2022-07-25T04:04:37;19.70;68.00
69747;DHT22;57018;50.278;19.134;2022-07-25T04:07:03;19.90;66.80
69747;DHT22;57018;50.278;19.134;2022-07-25T04:09:30;20.10;65.90
69747;DHT22;57018;50.278;19.134;2022-07-25T04:11:56;20.50;64.80
69747;DHT22;57018;50.278;19.134;2022-07-25T04:14:22;20.50;64.30
69747;DHT22;57018;50.278;19.134;2022-07-25T04:16:48;20.70;63.50
69747;DHT22;57018;50.278;19.134;2022-07-25T04:19:14;20.90;61.90
69747;DHT22;57018;50.278;19.134;2022-07-25T04:21:40;21.10;60.70
69747;DHT22;57018;50.278;19.134;2022-07-25T04:24:06;21.40;59.60
69747;DHT22;57018;50.278;19.134;2022-07-25T04:26:32;21.70;58.30
69747;DHT22;57018;50.278;19.134;2022-07-25T04:28:59;21.80;57.90
69747;DHT22;57018;50.278;19.134;2022-07-25T04:31:26;22.00;56.90
69747;DHT22;57018;50.278;19.134;2022-07-25T04:33:53;22.20;56.80
69747;DHT22;57018;50.278;19.134;2022-07-25T04:36:19;22.30;55.80
69747;DHT22;57018;50.278;19.134;2022-07-25T04:38:45;22.40;55.20
69747;DHT22;57018;50.278;19.134;2022-07-25T04:41:11;22.60;54.70
69747;DHT22;57018;50.278;19.134;2022-07-25T04:43:37;22.70;54.40
69747;DHT22;57018;50.278;19.134;2022-07-25T04:46:03;22.90;53.80
69747;DHT22;57018;50.278;19.134;2022-07-25T04:48:29;22.90;53.70
69747;DHT22;57018;50.278;19.134;2022-07-25T04:50:56;23.10;53.20
69747;DHT22;57018;50.278;19.134;2022-07-25T04:53:22;23.20;53.30
69747;DHT22;57018;50.278;19.134;2022-07-25T04:55:48;23.30;52.60
69747;DHT22;57018;50.278;19.134;2022-07-25T04:58:14;23.40;52.40
69747;DHT22;57018;50.278;19.134;2022-07-25T05:00:41;23.60;52.30
69747;DHT22;57018;50.278;19.134;2022-07-25T05:03:07;23.60;50.80
69747;DHT22;57018;50.278;19.134;2022-07-25T05:05:33;23.70;50.20
69747;DHT22;57018;50.278;19.134;2022-07-25T05:07:59;23.80;49.90
69747;DHT22;57018;50.278;19.134;2022-07-25T05:10:26;23.80;49.60
69747;DHT22;57018;50.278;19.134;2022-07-25T05:12:53;23.90;49.20
69747;DHT22;57018;50.278;19.134;2022-07-25T05:15:19;23.90;49.30
69747;DHT22;57018;50.278;19.134;2022-07-25T05:17:46;24.00;48.80
69747;DHT22;57018;50.278;19.134;2022-07-25T05:20:13;24.10;48.60
69747;DHT22;57018;50.278;19.134;2022-07-25T05:22:40;24.00;48.80
69747;DHT22;57018;50.278;19.134;2022-07-25T05:25:08;24.20;48.80
69747;DHT22;57018;50.278;19.134;2022-07-25T05:27:34;24.30;48.20
69747;DHT22;57018;50.278;19.134;2022-07-25T05:30:00;24.40;47.70
69747;DHT22;57018;50.278;19.134;2022-07-25T05:32:26;24.40;47.50
69747;DHT22;57018;50.278;19.134;2022-07-25T05:34:53;24.50;47.30
69747;DHT22;57018;50.278;19.134;2022-07-25T05:37:19;24.50;47.30
69747;DHT22;57018;50.278;19.134;2022-07-25T05:39:45;24.50;47.30
69747;DHT22;57018;50.278;19.134;2022-07-25T05:42:11;24.60;47.10
69747;DHT22;57018;50.278;19.134;2022-07-25T05:44:37;24.60;47.20
69747;DHT22;57018;50.278;19.134;2022-07-25T05:47:11;24.50;46.80
69747;DHT22;57018;50.278;19.134;2022-07-25T05:49:37;24.50;47.30
69747;DHT22;57018;50.278;19.134;2022-07-25T05:52:04;24.50;47.20
69747;DHT22;57018;50.278;19.134;2022-07-25T05:54:30;24.60;47.60
69747;DHT22;57018;50.278;19.134;2022-07-25T05:56:57;24.60;47.50
69747;DHT22;57018;50.278;19.134;2022-07-25T05:59:23;24.60;47.50
69747;DHT22;57018;50.278;19.134;2022-07-25T06:01:49;24.70;47.10
69747;DHT22;57018;50.278;19.134;2022-07-25T06:04:15;24.80;47.10
69747;DHT22;57018;50.278;19.134;2022-07-25T06:06:41;24.80;47.20
69747;DHT22;57018;50.278;19.134;2022-07-25T06:09:07;24.90;47.20
69747;DHT22;57018;50.278;19.134;2022-07-25T06:11:33;25.00;46.90
69747;DHT22;57018;50.278;19.134;2022-07-25T06:13:59;25.10;46.60
69747;DHT22;57018;50.278;19.134;2022-07-25T06:16:25;25.20;45.90
69747;DHT22;57018;50.278;19.134;2022-07-25T06:18:51;25.30;45.50
69747;DHT22;57018;50.278;19.134;2022-07-25T06:21:17;25.40;45.30
69747;DHT22;57018;50.278;19.134;2022-07-25T06:23:44;25.50;45.00
69747;DHT22;57018;50.278;19.134;2022-07-25T06:26:10;25.40;45.30
69747;DHT22;57018;50.278;19.134;2022-07-25T06:28:36;25.50;45.20
69747;DHT22;57018;50.278;19.134;2022-07-25T06:31:03;25.50;45.00
69747;DHT22;57018;50.278;19.134;2022-07-25T06:33:29;25.50;45.50
69747;DHT22;57018;50.278;19.134;2022-07-25T06:35:55;25.50;45.30
69747;DHT22;57018;50.278;19.134;2022-07-25T06:38:21;25.60;45.10
69747;DHT22;57018;50.278;19.134;2022-07-25T06:40:47;25.60;45.10
69747;DHT22;57018;50.278;19.134;2022-07-25T06:43:14;25.80;44.90
69747;DHT22;57018;50.278;19.134;2022-07-25T06:45:40;25.60;44.80
69747;DHT22;57018;50.278;19.134;2022-07-25T06:48:08;25.70;44.50
69747;DHT22;57018;50.278;19.134;2022-07-25T06:50:34;25.80;44.50
69747;DHT22;57018;50.278;19.134;2022-07-25T06:53:00;25.80;44.20
69747;DHT22;57018;50.278;19.134;2022-07-25T06:55:26;25.80;44.40
69747;DHT22;57018;50.278;19.134;2022-07-25T06:57:52;25.70;44.70
69747;DHT22;57018;50.278;19.134;2022-07-25T07:00:19;25.90;44.40
69747;DHT22;57018;50.278;19.134;2022-07-25T07:02:53;25.90;44.20
69747;DHT22;57018;50.278;19.134;2022-07-25T07:05:22;25.90;44.10
69747;DHT22;57018;50.278;19.134;2022-07-25T07:07:49;25.80;43.60
69747;DHT22;57018;50.278;19.134;2022-07-25T07:10:16;25.80;44.00
69747;DHT22;57018;50.278;19.134;2022-07-25T07:12:43;26.00;44.30
69747;DHT22;57018;50.278;19.134;2022-07-25T07:15:10;25.90;43.30
69747;DHT22;57018;50.278;19.134;2022-07-25T07:17:37;25.90;44.10
69747;DHT22;57018;50.278;19.134;2022-07-25T07:20:05;25.90;43.80
69747;DHT22;57018;50.278;19.134;2022-07-25T07:22:31;26.00;43.60
69747;DHT22;57018;50.278;19.134;2022-07-25T07:24:57;25.80;43.70
69747;DHT22;57018;50.278;19.134;2022-07-25T07:27:23;25.90;43.30
69747;DHT22;57018;50.278;19.134;2022-07-25T07:29:50;25.90;43.70
69747;DHT22;57018;50.278;19.134;2022-07-25T07:32:16;25.90;43.10
69747;DHT22;57018;50.278;19.134;2022-07-25T07:34:42;25.90;42.80
69747;DHT22;57018;50.278;19.134;2022-07-25T07:37:08;25.80;43.70
69747;DHT22;57018;50.278;19.134;2022-07-25T07:39:35;25.90;43.70
69747;DHT22;57018;50.278;19.134;2022-07-25T07:42:01;25.90;43.30
69747;DHT22;57018;50.278;19.134;2022-07-25T07:44:27;25.80;43.00
69747;DHT22;57018;50.278;19.134;2022-07-25T07:46:53;25.80;42.80
69747;DHT22;57018;50.278;19.134;2022-07-25T07:49:19;25.80;42.90
69747;DHT22;57018;50.278;19.134;2022-07-25T07:51:46;25.70;42.60
69747;DHT22;57018;50.278;19.134;2022-07-25T07:54:12;25.80;42.00
69747;DHT22;57018;50.278;19.134;2022-07-25T07:56:52;25.70;40.80
69747;DHT22;57018;50.278;19.134;2022-07-25T07:59:18;25.50;40.70
69747;DHT22;57018;50.278;19.134;2022-07-25T08:01:44;25.50;41.30
69747;DHT22;57018;50.278;19.134;2022-07-25T08:04:11;25.60;41.20
69747;DHT22;57018;50.278;19.134;2022-07-25T08:06:37;25.70;40.30
69747;DHT22;57018;50.278;19.134;2022-07-25T08:09:03;25.80;39.90
69747;DHT22;57018;50.278;19.134;2022-07-25T08:11:29;25.90;39.60
69747;DHT22;57018;50.278;19.134;2022-07-25T08:13:55;25.90;39.40
69747;DHT22;57018;50.278;19.134;2022-07-25T08:16:21;26.00;39.20
69747;DHT22;57018;50.278;19.134;2022-07-25T08:18:47;26.20;39.20
69747;DHT22;57018;50.278;19.134;2022-07-25T08:21:14;26.20;38.80
69747;DHT22;57018;50.278;19.134;2022-07-25T08:23:40;26.30;39.00
69747;DHT22;57018;50.278;19.134;2022-07-25T08:26:07;26.30;38.20
69747;DHT22;57018;50.278;19.134;2022-07-25T08:28:33;26.30;38.30
69747;DHT22;57018;50.278;19.134;2022-07-25T08:31:00;26.20;38.50
69747;DHT22;57018;50.278;19.134;2022-07-25T08:33:26;26.30;38.60
69747;DHT22;57018;50.278;19.134;2022-07-25T08:35:54;26.20;39.30
69747;DHT22;57018;50.278;19.134;2022-07-25T08:38:23;26.10;39.10
69747;DHT22;57018;50.278;19.134;2022-07-25T08:40:50;26.10;39.20
69747;DHT22;57018;50.278;19.134;2022-07-25T08:43:17;26.00;39.40
69747;DHT22;57018;50.278;19.134;2022-07-25T08:45:49;26.00;39.00
69747;DHT22;57018;50.278;19.134;2022-07-25T08:48:22;26.10;38.80
69747;DHT22;57018;50.278;19.134;2022-07-25T08:50:51;26.10;39.00
69747;DHT22;57018;50.278;19.134;2022-07-25T08:53:18;26.30;38.50
69747;DHT22;57018;50.278;19.134;2022-07-25T08:55:45;26.50;37.80
69747;DHT22;57018;50.278;19.134;2022-07-25T08:58:14;26.50;36.60
69747;DHT22;57018;50.278;19.134;2022-07-25T09:00:41;26.70;36.80
69747;DHT22;57018;50.278;19.134;2022-07-25T09:03:08;26.80;37.60
69747;DHT22;57018;50.278;19.134;2022-07-25T09:05:35;26.90;37.30
69747;DHT22;57018;50.278;19.134;2022-07-25T09:08:08;26.90;36.60
69747;DHT22;57018;50.278;19.134;2022-07-25T09:10:35;27.00;36.10
69747;DHT22;57018;50.278;19.134;2022-07-25T09:13:05;27.00;36.30
69747;DHT22;57018;50.278;19.134;2022-07-25T09:15:34;27.00;36.80
69747;DHT22;57018;50.278;19.134;2022-07-25T09:18:08;27.00;35.60
69747;DHT22;57018;50.278;19.134;2022-07-25T09:23:06;27.20;36.30
69747;DHT22;57018;50.278;19.134;2022-07-25T09:25:33;27.20;36.40
69747;DHT22;57018;50.278;19.134;2022-07-25T09:28:17;27.20;36.30
69747;DHT22;57018;50.278;19.134;2022-07-25T09:31:01;27.30;35.80
69747;DHT22;57018;50.278;19.134;2022-07-25T09:33:26;27.30;36.50
69747;DHT22;57018;50.278;19.134;2022-07-25T09:35:54;27.40;36.00
69747;DHT22;57018;50.278;19.134;2022-07-25T09:38:22;27.50;35.10
69747;DHT22;57018;50.278;19.134;2022-07-25T09:40:57;27.50;35.30
69747;DHT22;57018;50.278;19.134;2022-07-25T09:43:41;27.50;35.50
69747;DHT22;57018;50.278;19.134;2022-07-25T09:46:08;27.60;35.30
69747;DHT22;57018;50.278;19.134;2022-07-25T09:48:37;27.50;34.90
69747;DHT22;57018;50.278;19.134;2022-07-25T09:51:04;27.60;34.50
69747;DHT22;57018;50.278;19.134;2022-07-25T09:53:32;27.60;35.20
69747;DHT22;57018;50.278;19.134;2022-07-25T09:55:59;27.60;35.40
69747;DHT22;57018;50.278;19.134;2022-07-25T09:58:27;27.70;34.40
69747;DHT22;57018;50.278;19.134;2022-07-25T10:00:56;27.60;34.60
69747;DHT22;57018;50.278;19.134;2022-07-25T10:03:47;27.50;34.70
69747;DHT22;57018;50.278;19.134;2022-07-25T10:08:50;27.30;34.60
69747;DHT22;57018;50.278;19.134;2022-07-25T10:11:24;27.30;34.00
69747;DHT22;57018;50.278;19.134;2022-07-25T10:13:53;26.90;34.30
69747;DHT22;57018;50.278;19.134;2022-07-25T10:16:21;27.00;34.70
69747;DHT22;57018;50.278;19.134;2022-07-25T10:18:56;27.00;34.50
69747;DHT22;57018;50.278;19.134;2022-07-25T10:21:25;27.10;35.60
69747;DHT22;57018;50.278;19.134;2022-07-25T10:24:03;27.10;35.50
69747;DHT22;57018;50.278;19.134;2022-07-25T10:26:31;27.30;35.10
69747;DHT22;57018;50.278;19.134;2022-07-25T10:28:57;27.40;34.60
69747;DHT22;57018;50.278;19.134;2022-07-25T10:34:29;27.50;33.60
69747;DHT22;57018;50.278;19.134;2022-07-25T10:37:07;27.60;33.50
69747;DHT22;57018;50.278;19.134;2022-07-25T10:39:35;27.60;33.90
69747;DHT22;57018;50.278;19.134;2022-07-25T10:41:57;27.80;33.70
69747;DHT22;57018;50.278;19.134;2022-07-25T10:44:27;27.80;33.40
69747;DHT22;57018;50.278;19.134;2022-07-25T10:47:08;27.90;33.20
69747;DHT22;57018;50.278;19.134;2022-07-25T10:49:40;27.90;32.90
69747;DHT22;57018;50.278;19.134;2022-07-25T10:52:15;27.90;32.40
69747;DHT22;57018;50.278;19.134;2022-07-25T10:54:59;28.00;32.20
69747;DHT22;57018;50.278;19.134;2022-07-25T10:57:22;28.00;34.00
69747;DHT22;57018;50.278;19.134;2022-07-25T10:59:48;28.00;33.70
69747;DHT22;57018;50.278;19.134;2022-07-25T11:02:15;28.00;34.70
69747;DHT22;57018;50.278;19.134;2022-07-25T11:04:43;28.00;34.20
69747;DHT22;57018;50.278;19.134;2022-07-25T11:07:14;28.00;33.40
69747;DHT22;57018;50.278;19.134;2022-07-25T11:09:43;27.90;31.70
69747;DHT22;57018;50.278;19.134;2022-07-25T11:12:14;27.70;29.90
69747;DHT22;57018;50.278;19.134;2022-07-25T11:14:41;27.60;31.20
69747;DHT22;57018;50.278;19.134;2022-07-25T11:19:42;27.70;33.50
69747;DHT22;57018;50.278;19.134;2022-07-25T11:22:25;27.80;33.00
69747;DHT22;57018;50.278;19.134;2022-07-25T11:24:52;27.70;29.90
69747;DHT22;57018;50.278;19.134;2022-07-25T11:27:24;27.80;30.40
69747;DHT22;57018;50.278;19.134;2022-07-25T11:29:52;27.80;30.40
69747;DHT22;57018;50.278;19.134;2022-07-25T11:32:20;27.90;30.80
69747;DHT22;57018;50.278;19.134;2022-07-25T11:34:47;27.90;29.90
69747;DHT22;57018;50.278;19.134;2022-07-25T11:37:15;28.10;29.90
69747;DHT22;57018;50.278;19.134;2022-07-25T11:39:43;28.20;30.50
69747;DHT22;57018;50.278;19.134;2022-07-25T11:42:21;28.10;29.90
69747;DHT22;57018;50.278;19.134;2022-07-25T11:44:50;28.20;28.90
69747;DHT22;57018;50.278;19.134;2022-07-25T11:49:55;28.00;29.70
69747;DHT22;57018;50.278;19.134;2022-07-25T11:52:31;28.00;29.40
69747;DHT22;57018;50.278;19.134;2022-07-25T11:55:06;28.00;29.60
69747;DHT22;57018;50.278;19.134;2022-07-25T11:57:32;28.00;29.50
69747;DHT22;57018;50.278;19.134;2022-07-25T12:00:01;28.00;29.10
69747;DHT22;57018;50.278;19.134;2022-07-25T12:02:30;28.00;27.40
69747;DHT22;57018;50.278;19.134;2022-07-25T12:07:44;28.10;27.00
69747;DHT22;57018;50.278;19.134;2022-07-25T12:10:18;28.10;26.40
69747;DHT22;57018;50.278;19.134;2022-07-25T12:12:54;28.10;26.50
69747;DHT22;57018;50.278;19.134;2022-07-25T12:15:27;28.10;25.70
69747;DHT22;57018;50.278;19.134;2022-07-25T12:17:55;28.10;27.20
69747;DHT22;57018;50.278;19.134;2022-07-25T12:20:31;28.10;26.80
69747;DHT22;57018;50.278;19.134;2022-07-25T12:22:56;28.10;26.90
69747;DHT22;57018;50.278;19.134;2022-07-25T12:25:23;28.10;26.40
69747;DHT22;57018;50.278;19.134;2022-07-25T12:27:49;28.10;27.80
69747;DHT22;57018;50.278;19.134;2022-07-25T12:30:16;28.00;27.70
69747;DHT22;57018;50.278;19.134;2022-07-25T12:32:42;28.10;26.40
69747;DHT22;57018;50.278;19.134;2022-07-25T12:35:11;28.20;27.20
69747;DHT22;57018;50.278;19.134;2022-07-25T12:37:39;28.10;24.70
69747;DHT22;57018;50.278;19.134;2022-07-25T12:40:06;28.10;26.70
69747;DHT22;57018;50.278;19.134;2022-07-25T12:42:33;28.20;25.60
69747;DHT22;57018;50.278;19.134;2022-07-25T12:44:59;28.20;25.30
69747;DHT22;57018;50.278;19.134;2022-07-25T12:47:27;28.20;25.20
69747;DHT22;57018;50.278;19.134;2022-07-25T12:49:53;28.40;25.60
69747;DHT22;57018;50.278;19.134;2022-07-25T12:52:19;28.40;24.30
69747;DHT22;57018;50.278;19.134;2022-07-25T12:54:46;28.30;24.10
69747;DHT22;57018;50.278;19.134;2022-07-25T12:57:13;28.30;24.80
69747;DHT22;57018;50.278;19.134;2022-07-25T12:59:41;28.30;24.50
69747;DHT22;57018;50.278;19.134;2022-07-25T13:02:07;28.40;26.20
69747;DHT22;57018;50.278;19.134;2022-07-25T13:04:34;28.50;25.80
69747;DHT22;57018;50.278;19.134;2022-07-25T13:07:00;28.40;25.10
69747;DHT22;57018;50.278;19.134;2022-07-25T13:09:27;28.40;25.40
69747;DHT22;57018;50.278;19.134;2022-07-25T13:11:55;28.50;25.20
69747;DHT22;57018;50.278;19.134;2022-07-25T13:14:21;28.60;25.10
69747;DHT22;57018;50.278;19.134;2022-07-25T13:16:47;28.50;25.00
69747;DHT22;57018;50.278;19.134;2022-07-25T13:19:14;28.60;24.40
69747;DHT22;57018;50.278;19.134;2022-07-25T13:21:42;28.50;24.60
69747;DHT22;57018;50.278;19.134;2022-07-25T13:24:10;28.50;24.50
69747;DHT22;57018;50.278;19.134;2022-07-25T13:26:37;28.50;25.30
69747;DHT22;57018;50.278;19.134;2022-07-25T13:29:04;28.50;25.00
69747;DHT22;57018;50.278;19.134;2022-07-25T13:31:40;28.50;23.40
69747;DHT22;57018;50.278;19.134;2022-07-25T13:34:04;28.40;23.00
69747;DHT22;57018;50.278;19.134;2022-07-25T13:36:33;28.50;22.80
69747;DHT22;57018;50.278;19.134;2022-07-25T13:38:59;28.40;22.90
69747;DHT22;57018;50.278;19.134;2022-07-25T13:41:26;28.30;22.40
69747;DHT22;57018;50.278;19.134;2022-07-25T13:43:52;28.40;23.70
69747;DHT22;57018;50.278;19.134;2022-07-25T13:46:19;28.40;24.50
69747;DHT22;57018;50.278;19.134;2022-07-25T13:48:45;28.40;25.00
69747;DHT22;57018;50.278;19.134;2022-07-25T13:51:11;28.40;24.80
69747;DHT22;57018;50.278;19.134;2022-07-25T13:53:37;28.40;24.30
69747;DHT22;57018;50.278;19.134;2022-07-25T13:56:04;28.40;23.80
69747;DHT22;57018;50.278;19.134;2022-07-25T13:58:31;28.40;24.60
69747;DHT22;57018;50.278;19.134;2022-07-25T14:00:57;28.40;25.10
69747;DHT22;57018;50.278;19.134;2022-07-25T14:03:24;28.40;24.80
69747;DHT22;57018;50.278;19.134;2022-07-25T14:05:50;28.50;25.00
69747;DHT22;57018;50.278;19.134;2022-07-25T14:08:17;28.50;24.90
69747;DHT22;57018;50.278;19.134;2022-07-25T14:10:43;28.40;24.60
69747;DHT22;57018;50.278;19.134;2022-07-25T14:13:09;28.50;25.00
69747;DHT22;57018;50.278;19.134;2022-07-25T14:15:37;28.40;25.40
69747;DHT22;57018;50.278;19.134;2022-07-25T14:18:04;28.40;24.70
69747;DHT22;57018;50.278;19.134;2022-07-25T14:20:30;28.40;25.30
69747;DHT22;57018;50.278;19.134;2022-07-25T14:22:57;28.40;25.70
69747;DHT22;57018;50.278;19.134;2022-07-25T14:25:23;28.40;26.00
69747;DHT22;57018;50.278;19.134;2022-07-25T14:27:49;28.40;26.60
69747;DHT22;57018;50.278;19.134;2022-07-25T14:30:16;28.40;26.00
69747;DHT22;57018;50.278;19.134;2022-07-25T14:32:42;28.40;25.80
69747;DHT22;57018;50.278;19.134;2022-07-25T14:35:09;28.50;26.50
69747;DHT22;57018;50.278;19.134;2022-07-25T14:37:37;28.50;26.70
69747;DHT22;57018;50.278;19.134;2022-07-25T14:40:04;28.50;26.50
69747;DHT22;57018;50.278;19.134;2022-07-25T14:42:30;28.50;26.20
69747;DHT22;57018;50.278;19.134;2022-07-25T14:44:56;28.50;25.20
69747;DHT22;57018;50.278;19.134;2022-07-25T14:47:22;28.50;25.20
69747;DHT22;57018;50.278;19.134;2022-07-25T14:49:49;28.50;25.30
69747;DHT22;57018;50.278;19.134;2022-07-25T14:52:15;28.60;25.10
69747;DHT22;57018;50.278;19.134;2022-07-25T14:54:41;28.60;25.20
69747;DHT22;57018;50.278;19.134;2022-07-25T14:57:08;28.70;24.20
69747;DHT22;57018;50.278;19.134;2022-07-25T14:59:35;28.50;24.00
69747;DHT22;57018;50.278;19.134;2022-07-25T15:02:01;28.60;24.00
69747;DHT22;57018;50.278;19.134;2022-07-25T15:04:28;28.50;22.90
69747;DHT22;57018;50.278;19.134;2022-07-25T15:06:54;28.50;22.50
69747;DHT22;57018;50.278;19.134;2022-07-25T15:09:48;28.50;22.80
69747;DHT22;57018;50.278;19.134;2022-07-25T15:12:14;28.40;23.90
69747;DHT22;57018;50.278;19.134;2022-07-25T15:14:40;28.40;23.80
69747;DHT22;57018;50.278;19.134;2022-07-25T15:17:07;28.40;23.80
69747;DHT22;57018;50.278;19.134;2022-07-25T15:19:33;28.30;24.10
69747;DHT22;57018;50.278;19.134;2022-07-25T15:21:59;28.30;24.50
69747;DHT22;57018;50.278;19.134;2022-07-25T15:24:26;28.40;24.30
69747;DHT22;57018;50.278;19.134;2022-07-25T15:26:52;28.40;24.40
69747;DHT22;57018;50.278;19.134;2022-07-25T15:29:18;28.40;24.30
69747;DHT22;57018;50.278;19.134;2022-07-25T15:31:47;28.30;25.30